sensor_id;sensor_type;location;lat;lon;timestamp;temperature;humidity
23869;DHT22;12115;47.128;15.422;2022-10-16T00:01:28;11.30;99.90
23869;DHT22;12115;47.128;15.422;2022-10-16T00:03:57;11.30;99.90
23869;DHT22;12115;47.128;15.422;2022-10-16T00:06:26;11.20;99.90
23869;DHT22;12115;47.128;15.422;2022-10-16T00:08:53;11.20;99.90
23869;DHT22;12115;47.128;15.422;2022-10-16T00:11:23;11.20;99.90
23869;DHT22;12115;47.128;15.422;2022-10-16T00:13:54;11.20;99.90
23869;DHT22;12115;47.128;15.422;2022-10-16T00:16:21;11.20;99.90
23869;DHT22;12115;47.128;15.422;2022-10-16T00:18:48;11.20;99.90
23869;DHT22;12115;47.128;15.422;2022-10-16T00:21:18;11.20;99.90
23869;DHT22;12115;47.128;15.422;2022-10-16T00:23:46;11.30;99.90
23869;DHT22;12115;47.128;15.422;2022-10-16T00:26:17;11.30;99.90
23869;DHT22;12115;47.128;15.422;2022-10-16T00:28:48;11.30;99.90
23869;DHT22;12115;47.128;15.422;2022-10-16T00:31:17;11.30;99.90
23869;DHT22;12115;47.128;15.422;2022-10-16T00:33:44;11.30;99.90
23869;DHT22;12115;47.128;15.422;2022-10-16T00:36:14;11.30;99.90
23869;DHT22;12115;47.128;15.422;2022-10-16T00:38:42;11.30;99.90
23869;DHT22;12115;47.128;15.422;2022-10-16T00:41:15;11.30;99.90
23869;DHT22;12115;47.128;15.422;2022-10-16T00:43:52;11.30;99.90
23869;DHT22;12115;47.128;15.422;2022-10-16T00:46:42;11.30;99.90
23869;DHT22;12115;47.128;15.422;2022-10-16T00:49:13;11.20;99.90
23869;DHT22;12115;47.128;15.422;2022-10-16T00:51:43;11.20;99.90
23869;DHT22;12115;47.128;15.422;2022-10-16T00:54:23;11.10;99.90
23869;DHT22;12115;47.128;15.422;2022-10-16T00:56:51;11.20;99.90
23869;DHT22;12115;47.128;15.422;2022-10-16T00:59:24;11.10;99.90
23869;DHT22;12115;47.128;15.422;2022-10-16T01:01:52;11.10;99.90
23869;DHT22;12115;47.128;15.422;2022-10-16T01:04:20;11.10;99.90
23869;DHT22;12115;47.128;15.422;2022-10-16T01:13:21;11.10;99.90
23869;DHT22;12115;47.128;15.422;2022-10-16T01:21:20;11.00;99.90
23869;DHT22;12115;47.128;15.422;2022-10-16T01:31:31;10.90;99.90
23869;DHT22;12115;47.128;15.422;2022-10-16T01:34:04;10.90;99.90
23869;DHT22;12115;47.128;15.422;2022-10-16T01:36:41;10.80;99.90
23869;DHT22;12115;47.128;15.422;2022-10-16T01:39:10;10.80;99.90
23869;DHT22;12115;47.128;15.422;2022-10-16T01:41:42;10.80;99.90
23869;DHT22;12115;47.128;15.422;2022-10-16T01:44:14;10.80;99.90
23869;DHT22;12115;47.128;15.422;2022-10-16T01:46:46;10.70;99.90
23869;DHT22;12115;47.128;15.422;2022-10-16T01:49:14;10.70;99.90
23869;DHT22;12115;47.128;15.422;2022-10-16T01:51:45;10.70;99.90
23869;DHT22;12115;47.128;15.422;2022-10-16T01:54:15;10.70;99.90
23869;DHT22;12115;47.128;15.422;2022-10-16T01:56:45;10.70;99.90
23869;DHT22;12115;47.128;15.422;2022-10-16T01:59:17;10.80;99.90
23869;DHT22;12115;47.128;15.422;2022-10-16T02:01:50;10.80;99.90
23869;DHT22;12115;47.128;15.422;2022-10-16T02:04:26;10.80;99.90
23869;DHT22;12115;47.128;15.422;2022-10-16T02:06:54;10.80;99.90
23869;DHT22;12115;47.128;15.422;2022-10-16T02:09:22;10.80;99.90
23869;DHT22;12115;47.128;15.422;2022-10-16T02:11:52;10.80;99.90
23869;DHT22;12115;47.128;15.422;2022-10-16T02:14:21;10.80;99.90
23869;DHT22;12115;47.128;15.422;2022-10-16T02:16:51;10.80;99.90
23869;DHT22;12115;47.128;15.422;2022-10-16T02:19:19;10.80;99.90
23869;DHT22;12115;47.128;15.422;2022-10-16T02:29:28;10.90;99.90
23869;DHT22;12115;47.128;15.422;2022-10-16T02:32:01;10.90;99.90
23869;DHT22;12115;47.128;15.422;2022-10-16T02:34:31;10.90;99.90
23869;DHT22;12115;47.128;15.422;2022-10-16T02:37:00;10.80;99.90
23869;DHT22;12115;47.128;15.422;2022-10-16T02:39:28;10.80;99.90
23869;DHT22;12115;47.128;15.422;2022-10-16T02:41:56;10.70;99.90
23869;DHT22;12115;47.128;15.422;2022-10-16T02:44:23;10.70;99.90
23869;DHT22;12115;47.128;15.422;2022-10-16T02:46:50;10.70;99.90
23869;DHT22;12115;47.128;15.422;2022-10-16T02:49:17;10.70;99.90
23869;DHT22;12115;47.128;15.422;2022-10-16T02:51:44;10.70;99.90
23869;DHT22;12115;47.128;15.422;2022-10-16T02:54:11;10.70;99.90
23869;DHT22;12115;47.128;15.422;2022-10-16T02:56:39;10.70;99.90
23869;DHT22;12115;47.128;15.422;2022-10-16T02:59:06;10.70;99.90
23869;DHT22;12115;47.128;15.422;2022-10-16T03:01:33;10.70;99.90
23869;DHT22;12115;47.128;15.422;2022-10-16T03:04:00;10.70;99.90
23869;DHT22;12115;47.128;15.422;2022-10-16T03:06:27;10.70;99.90
23869;DHT22;12115;47.128;15.422;2022-10-16T03:08:54;10.70;99.90
23869;DHT22;12115;47.128;15.422;2022-10-16T03:11:21;10.60;99.90
23869;DHT22;12115;47.128;15.422;2022-10-16T03:13:48;10.60;99.90
23869;DHT22;12115;47.128;15.422;2022-10-16T03:16:15;10.50;99.90
23869;DHT22;12115;47.128;15.422;2022-10-16T03:18:42;10.60;99.90
23869;DHT22;12115;47.128;15.422;2022-10-16T03:21:09;10.50;99.90
23869;DHT22;12115;47.128;15.422;2022-10-16T03:23:36;10.50;99.90
23869;DHT22;12115;47.128;15.422;2022-10-16T03:26:03;10.50;99.90
23869;DHT22;12115;47.128;15.422;2022-10-16T03:28:29;10.50;99.90
23869;DHT22;12115;47.128;15.422;2022-10-16T03:30:57;10.50;99.90
23869;DHT22;12115;47.128;15.422;2022-10-16T03:33:24;10.50;99.90
23869;DHT22;12115;47.128;15.422;2022-10-16T03:35:52;10.50;99.90
23869;DHT22;12115;47.128;15.422;2022-10-16T03:38:20;10.40;99.90
23869;DHT22;12115;47.128;15.422;2022-10-16T03:40:48;10.40;99.90
23869;DHT22;12115;47.128;15.422;2022-10-16T03:43:14;10.40;99.90
23869;DHT22;12115;47.128;15.422;2022-10-16T03:45:42;10.50;99.90
23869;DHT22;12115;47.128;15.422;2022-10-16T03:48:09;10.50;99.90
23869;DHT22;12115;47.128;15.422;2022-10-16T03:50:36;10.40;99.90
23869;DHT22;12115;47.128;15.422;2022-10-16T03:53:03;10.50;99.90
23869;DHT22;12115;47.128;15.422;2022-10-16T03:55:30;10.50;99.90
23869;DHT22;12115;47.128;15.422;2022-10-16T03:57:57;10.50;99.90
23869;DHT22;12115;47.128;15.422;2022-10-16T04:00:24;10.60;99.90
23869;DHT22;12115;47.128;15.422;2022-10-16T04:02:51;10.60;99.90
23869;DHT22;12115;47.128;15.422;2022-10-16T04:05:18;10.60;99.90
23869;DHT22;12115;47.128;15.422;2022-10-16T04:07:45;10.60;99.90
23869;DHT22;12115;47.128;15.422;2022-10-16T04:10:12;10.60;99.90
23869;DHT22;12115;47.128;15.422;2022-10-16T04:12:39;10.70;99.90
23869;DHT22;12115;47.128;15.422;2022-10-16T04:15:06;10.70;99.90
23869;DHT22;12115;47.128;15.422;2022-10-16T04:17:34;10.70;99.90
23869;DHT22;12115;47.128;15.422;2022-10-16T04:20:00;10.70;99.90
23869;DHT22;12115;47.128;15.422;2022-10-16T04:22:27;10.70;99.90
23869;DHT22;12115;47.128;15.422;2022-10-16T04:24:55;10.70;99.90
23869;DHT22;12115;47.128;15.422;2022-10-16T04:27:22;10.70;99.90
23869;DHT22;12115;47.128;15.422;2022-10-16T04:29:50;10.70;99.90
23869;DHT22;12115;47.128;15.422;2022-10-16T04:32:21;10.70;99.90
23869;DHT22;12115;47.128;15.422;2022-10-16T04:34:48;10.70;99.90
23869;DHT22;12115;47.128;15.422;2022-10-16T04:37:15;10.80;99.90
23869;DHT22;12115;47.128;15.422;2022-10-16T04:39:42;10.80;99.90
23869;DHT22;12115;47.128;15.422;2022-10-16T04:42:10;10.70;99.90
23869;DHT22;12115;47.128;15.422;2022-10-16T04:44:37;10.70;99.90
23869;DHT22;12115;47.128;15.422;2022-10-16T04:47:04;10.80;99.90
23869;DHT22;12115;47.128;15.422;2022-10-16T04:49:31;10.80;99.90
23869;DHT22;12115;47.128;15.422;2022-10-16T04:51:58;10.80;99.90
23869;DHT22;12115;47.128;15.422;2022-10-16T04:54:25;10.80;99.90
23869;DHT22;12115;47.128;15.422;2022-10-16T04:56:52;10.70;99.90
23869;DHT22;12115;47.128;15.422;2022-10-16T04:59:20;10.70;99.90
23869;DHT22;12115;47.128;15.422;2022-10-16T05:01:47;10.70;99.90
23869;DHT22;12115;47.128;15.422;2022-10-16T05:04:14;10.70;99.90
23869;DHT22;12115;47.128;15.422;2022-10-16T05:06:42;10.70;99.90
23869;DHT22;12115;47.128;15.422;2022-10-16T05:09:10;10.70;99.90
23869;DHT22;12115;47.128;15.422;2022-10-16T05:11:37;10.70;99.90
23869;DHT22;12115;47.128;15.422;2022-10-16T05:14:04;10.70;99.90
23869;DHT22;12115;47.128;15.422;2022-10-16T05:16:31;10.70;99.90
23869;DHT22;12115;47.128;15.422;2022-10-16T05:18:58;10.70;99.90
23869;DHT22;12115;47.128;15.422;2022-10-16T05:21:46;10.70;99.90
23869;DHT22;12115;47.128;15.422;2022-10-16T05:24:13;10.70;99.90
23869;DHT22;12115;47.128;15.422;2022-10-16T05:26:40;10.70;99.90
23869;DHT22;12115;47.128;15.422;2022-10-16T05:29:07;10.70;99.90
23869;DHT22;12115;47.128;15.422;2022-10-16T05:31:34;10.80;99.90
23869;DHT22;12115;47.128;15.422;2022-10-16T05:34:02;10.80;99.90
23869;DHT22;12115;47.128;15.422;2022-10-16T05:36:29;10.80;99.90
23869;DHT22;12115;47.128;15.422;2022-10-16T05:38:56;10.90;99.90
23869;DHT22;12115;47.128;15.422;2022-10-16T05:41:23;10.90;99.90
23869;DHT22;12115;47.128;15.422;2022-10-16T05:43:53;10.90;99.90
23869;DHT22;12115;47.128;15.422;2022-10-16T05:46:20;10.90;99.90
23869;DHT22;12115;47.128;15.422;2022-10-16T05:48:47;10.90;99.90
23869;DHT22;12115;47.128;15.422;2022-10-16T05:51:14;10.90;99.90
23869;DHT22;12115;47.128;15.422;2022-10-16T05:53:42;10.90;99.90
23869;DHT22;12115;47.128;15.422;2022-10-16T05:56:11;10.90;99.90
23869;DHT22;12115;47.128;15.422;2022-10-16T05:58:39;11.00;99.90
23869;DHT22;12115;47.128;15.422;2022-10-16T06:01:16;10.90;99.90
23869;DHT22;12115;47.128;15.422;2022-10-16T06:03:44;11.00;99.90
23869;DHT22;12115;47.128;15.422;2022-10-16T06:06:19;10.90;99.90
23869;DHT22;12115;47.128;15.422;2022-10-16T06:08:48;10.90;99.90
23869;DHT22;12115;47.128;15.422;2022-10-16T06:11:17;10.90;99.90
23869;DHT22;12115;47.128;15.422;2022-10-16T06:13:44;10.90;99.90
23869;DHT22;12115;47.128;15.422;2022-10-16T06:16:12;10.90;99.90
23869;DHT22;12115;47.128;15.422;2022-10-16T06:18:40;10.90;99.90
23869;DHT22;12115;47.128;15.422;2022-10-16T06:21:14;10.90;99.90
23869;DHT22;12115;47.128;15.422;2022-10-16T06:23:42;11.00;99.90
23869;DHT22;12115;47.128;15.422;2022-10-16T06:26:12;11.10;99.90
23869;DHT22;12115;47.128;15.422;2022-10-16T06:28:39;11.30;99.90
23869;DHT22;12115;47.128;15.422;2022-10-16T06:31:08;11.40;99.90
23869;DHT22;12115;47.128;15.422;2022-10-16T06:33:36;11.40;99.90
23869;DHT22;12115;47.128;15.422;2022-10-16T06:36:06;11.60;99.90
23869;DHT22;12115;47.128;15.422;2022-10-16T06:38:34;11.60;99.90
23869;DHT22;12115;47.128;15.422;2022-10-16T06:41:02;11.70;99.90
23869;DHT22;12115;47.128;15.422;2022-10-16T06:43:29;11.90;99.90
23869;DHT22;12115;47.128;15.422;2022-10-16T06:46:00;12.00;99.90
23869;DHT22;12115;47.128;15.422;2022-10-16T06:48:28;12.10;99.90
23869;DHT22;12115;47.128;15.422;2022-10-16T06:51:00;12.20;99.90
23869;DHT22;12115;47.128;15.422;2022-10-16T06:53:30;12.20;99.90
23869;DHT22;12115;47.128;15.422;2022-10-16T06:56:13;12.30;99.90
23869;DHT22;12115;47.128;15.422;2022-10-16T06:58:42;12.50;99.90
23869;DHT22;12115;47.128;15.422;2022-10-16T07:01:10;12.70;99.90
23869;DHT22;12115;47.128;15.422;2022-10-16T07:03:40;12.80;99.90
23869;DHT22;12115;47.128;15.422;2022-10-16T07:06:08;13.10;99.90
23869;DHT22;12115;47.128;15.422;2022-10-16T07:08:38;13.40;99.90
23869;DHT22;12115;47.128;15.422;2022-10-16T07:11:11;13.80;99.90
23869;DHT22;12115;47.128;15.422;2022-10-16T07:13:40;14.30;99.90
23869;DHT22;12115;47.128;15.422;2022-10-16T07:16:12;14.80;99.90
23869;DHT22;12115;47.128;15.422;2022-10-16T07:18:40;15.50;99.90
23869;DHT22;12115;47.128;15.422;2022-10-16T07:21:18;16.10;99.90
23869;DHT22;12115;47.128;15.422;2022-10-16T07:23:50;16.70;99.90
23869;DHT22;12115;47.128;15.422;2022-10-16T07:26:17;17.30;99.90
23869;DHT22;12115;47.128;15.422;2022-10-16T07:28:44;18.00;99.90
23869;DHT22;12115;47.128;15.422;2022-10-16T07:31:13;18.60;99.90
23869;DHT22;12115;47.128;15.422;2022-10-16T07:33:42;19.40;99.90
23869;DHT22;12115;47.128;15.422;2022-10-16T07:36:12;20.10;99.90
23869;DHT22;12115;47.128;15.422;2022-10-16T07:38:42;20.90;99.90
23869;DHT22;12115;47.128;15.422;2022-10-16T07:41:12;21.60;99.90
23869;DHT22;12115;47.128;15.422;2022-10-16T07:43:40;22.00;99.90
23869;DHT22;12115;47.128;15.422;2022-10-16T07:46:07;22.60;99.90
23869;DHT22;12115;47.128;15.422;2022-10-16T07:48:34;22.80;99.90
23869;DHT22;12115;47.128;15.422;2022-10-16T07:51:04;23.60;99.90
23869;DHT22;12115;47.128;15.422;2022-10-16T07:53:33;24.10;99.90
23869;DHT22;12115;47.128;15.422;2022-10-16T07:56:09;24.60;99.90
23869;DHT22;12115;47.128;15.422;2022-10-16T07:58:36;25.00;99.90
23869;DHT22;12115;47.128;15.422;2022-10-16T08:01:08;25.40;99.90
23869;DHT22;12115;47.128;15.422;2022-10-16T08:03:36;26.10;99.30
23869;DHT22;12115;47.128;15.422;2022-10-16T08:06:04;26.80;97.90
23869;DHT22;12115;47.128;15.422;2022-10-16T08:08:31;27.50;95.60
23869;DHT22;12115;47.128;15.422;2022-10-16T08:10:58;28.50;94.80
23869;DHT22;12115;47.128;15.422;2022-10-16T08:13:25;29.00;93.70
23869;DHT22;12115;47.128;15.422;2022-10-16T08:15:53;29.90;91.10
23869;DHT22;12115;47.128;15.422;2022-10-16T08:18:21;30.50;90.30
23869;DHT22;12115;47.128;15.422;2022-10-16T08:20:58;31.40;87.90
23869;DHT22;12115;47.128;15.422;2022-10-16T08:23:26;32.00;83.20
23869;DHT22;12115;47.128;15.422;2022-10-16T08:25:54;32.90;80.00
23869;DHT22;12115;47.128;15.422;2022-10-16T08:28:22;33.00;77.70
23869;DHT22;12115;47.128;15.422;2022-10-16T08:30:49;33.40;74.40
23869;DHT22;12115;47.128;15.422;2022-10-16T08:33:17;33.80;71.40
23869;DHT22;12115;47.128;15.422;2022-10-16T08:35:53;33.70;71.90
23869;DHT22;12115;47.128;15.422;2022-10-16T08:38:21;33.40;69.60
23869;DHT22;12115;47.128;15.422;2022-10-16T08:40:48;33.70;68.90
23869;DHT22;12115;47.128;15.422;2022-10-16T08:51:09;35.50;60.70
23869;DHT22;12115;47.128;15.422;2022-10-16T08:53:44;35.20;61.50
23869;DHT22;12115;47.128;15.422;2022-10-16T08:56:13;34.60;59.90
23869;DHT22;12115;47.128;15.422;2022-10-16T08:58:40;35.40;60.60
23869;DHT22;12115;47.128;15.422;2022-10-16T09:01:16;36.70;58.80
23869;DHT22;12115;47.128;15.422;2022-10-16T09:12:12;38.20;53.80
23869;DHT22;12115;47.128;15.422;2022-10-16T09:15:03;37.80;53.60
23869;DHT22;12115;47.128;15.422;2022-10-16T09:22:46;38.20;52.40
23869;DHT22;12115;47.128;15.422;2022-10-16T09:25:16;37.80;52.70
23869;DHT22;12115;47.128;15.422;2022-10-16T09:27:47;38.50;51.60
23869;DHT22;12115;47.128;15.422;2022-10-16T09:30:15;39.00;51.60
23869;DHT22;12115;47.128;15.422;2022-10-16T09:32:44;39.40;49.80
23869;DHT22;12115;47.128;15.422;2022-10-16T09:35:16;39.70;48.80
23869;DHT22;12115;47.128;15.422;2022-10-16T09:37:45;38.80;48.80
23869;DHT22;12115;47.128;15.422;2022-10-16T09:40:35;38.70;49.40
23869;DHT22;12115;47.128;15.422;2022-10-16T09:46:03;39.00;48.50
23869;DHT22;12115;47.128;15.422;2022-10-16T09:48:37;38.50;47.80
23869;DHT22;12115;47.128;15.422;2022-10-16T09:51:23;37.00;49.00
23869;DHT22;12115;47.128;15.422;2022-10-16T09:54:16;36.10;49.70
23869;DHT22;12115;47.128;15.422;2022-10-16T09:56:42;36.80;49.60
23869;DHT22;12115;47.128;15.422;2022-10-16T09:59:20;37.50;48.50
23869;DHT22;12115;47.128;15.422;2022-10-16T10:04:20;38.20;47.60
23869;DHT22;12115;47.128;15.422;2022-10-16T10:06:52;38.40;47.20
23869;DHT22;12115;47.128;15.422;2022-10-16T10:09:38;37.40;46.90
23869;DHT22;12115;47.128;15.422;2022-10-16T10:12:06;36.70;47.00
23869;DHT22;12115;47.128;15.422;2022-10-16T10:14:48;36.60;48.10
23869;DHT22;12115;47.128;15.422;2022-10-16T10:17:20;35.60;50.50
23869;DHT22;12115;47.128;15.422;2022-10-16T10:19:54;34.60;51.70
23869;DHT22;12115;47.128;15.422;2022-10-16T10:22:42;32.30;55.80
23869;DHT22;12115;47.128;15.422;2022-10-16T10:35:45;26.90;66.40
23869;DHT22;12115;47.128;15.422;2022-10-16T10:42:17;26.50;69.00
23869;DHT22;12115;47.128;15.422;2022-10-16T10:47:15;25.90;69.60
23869;DHT22;12115;47.128;15.422;2022-10-16T11:01:09;25.70;70.50
23869;DHT22;12115;47.128;15.422;2022-10-16T11:07:11;25.70;72.50
23869;DHT22;12115;47.128;15.422;2022-10-16T11:09:46;25.90;73.00
23869;DHT22;12115;47.128;15.422;2022-10-16T11:12:42;25.90;72.30
23869;DHT22;12115;47.128;15.422;2022-10-16T11:15:29;25.90;72.20
23869;DHT22;12115;47.128;15.422;2022-10-16T11:17:59;25.70;73.60
23869;DHT22;12115;47.128;15.422;2022-10-16T11:20:34;25.30;74.00
23869;DHT22;12115;47.128;15.422;2022-10-16T11:23:32;25.30;74.40
23869;DHT22;12115;47.128;15.422;2022-10-16T11:26:05;25.10;74.80
23869;DHT22;12115;47.128;15.422;2022-10-16T11:28:42;24.70;75.10
23869;DHT22;12115;47.128;15.422;2022-10-16T11:33:46;24.90;75.70
23869;DHT22;12115;47.128;15.422;2022-10-16T11:38:55;25.00;75.70
23869;DHT22;12115;47.128;15.422;2022-10-16T11:41:43;25.00;76.20
23869;DHT22;12115;47.128;15.422;2022-10-16T11:51:06;24.70;77.90
23869;DHT22;12115;47.128;15.422;2022-10-16T11:56:16;24.90;79.30
23869;DHT22;12115;47.128;15.422;2022-10-16T11:59:03;24.70;79.20
23869;DHT22;12115;47.128;15.422;2022-10-16T12:01:43;24.70;79.10
23869;DHT22;12115;47.128;15.422;2022-10-16T12:04:22;24.50;79.20
23869;DHT22;12115;47.128;15.422;2022-10-16T12:06:58;24.50;79.90
23869;DHT22;12115;47.128;15.422;2022-10-16T12:09:29;24.10;81.20
23869;DHT22;12115;47.128;15.422;2022-10-16T12:11:57;24.20;81.40
23869;DHT22;12115;47.128;15.422;2022-10-16T12:17:04;24.00;81.90
23869;DHT22;12115;47.128;15.422;2022-10-16T12:22:51;23.70;82.90
23869;DHT22;12115;47.128;15.422;2022-10-16T12:25:29;23.80;83.70
23869;DHT22;12115;47.128;15.422;2022-10-16T12:28:19;23.60;83.50
23869;DHT22;12115;47.128;15.422;2022-10-16T12:30:58;23.60;84.30
23869;DHT22;12115;47.128;15.422;2022-10-16T12:33:40;23.40;84.50
23869;DHT22;12115;47.128;15.422;2022-10-16T12:36:26;23.30;85.20
23869;DHT22;12115;47.128;15.422;2022-10-16T12:38:54;23.20;85.60
23869;DHT22;12115;47.128;15.422;2022-10-16T12:41:35;23.30;85.40
23869;DHT22;12115;47.128;15.422;2022-10-16T12:44:02;23.30;86.30
23869;DHT22;12115;47.128;15.422;2022-10-16T12:49:29;23.20;86.70
23869;DHT22;12115;47.128;15.422;2022-10-16T12:51:56;23.10;87.70
23869;DHT22;12115;47.128;15.422;2022-10-16T12:54:28;23.20;87.20
23869;DHT22;12115;47.128;15.422;2022-10-16T12:57:13;23.00;88.60
23869;DHT22;12115;47.128;15.422;2022-10-16T13:05:26;22.80;88.20
23869;DHT22;12115;47.128;15.422;2022-10-16T13:10:40;23.00;87.50
23869;DHT22;12115;47.128;15.422;2022-10-16T13:16:09;22.80;88.20
23869;DHT22;12115;47.128;15.422;2022-10-16T13:27:14;22.80;89.60
23869;DHT22;12115;47.128;15.422;2022-10-16T13:29:45;22.60;90.30
23869;DHT22;12115;47.128;15.422;2022-10-16T13:32:19;22.60;90.20
23869;DHT22;12115;47.128;15.422;2022-10-16T13:34:48;22.60;90.10
23869;DHT22;12115;47.128;15.422;2022-10-16T13:37:20;22.50;90.50
23869;DHT22;12115;47.128;15.422;2022-10-16T13:39:47;22.40;90.80
23869;DHT22;12115;47.128;15.422;2022-10-16T13:42:24;22.40;91.10
23869;DHT22;12115;47.128;15.422;2022-10-16T13:44:55;22.40;90.90
23869;DHT22;12115;47.128;15.422;2022-10-16T13:47:25;22.30;91.20
23869;DHT22;12115;47.128;15.422;2022-10-16T13:50:00;22.30;91.00
23869;DHT22;12115;47.128;15.422;2022-10-16T13:52:28;22.40;91.30
23869;DHT22;12115;47.128;15.422;2022-10-16T13:54:55;22.40;91.40
23869;DHT22;12115;47.128;15.422;2022-10-16T13:57:28;22.40;91.10
23869;DHT22;12115;47.128;15.422;2022-10-16T13:59:55;22.40;91.20
23869;DHT22;12115;47.128;15.422;2022-10-16T14:02:31;22.40;91.20
23869;DHT22;12115;47.128;15.422;2022-10-16T14:05:02;22.30;91.30
23869;DHT22;12115;47.128;15.422;2022-10-16T14:07:32;22.20;90.90
23869;DHT22;12115;47.128;15.422;2022-10-16T14:10:04;22.20;91.30
23869;DHT22;12115;47.128;15.422;2022-10-16T14:12:31;22.20;91.30
23869;DHT22;12115;47.128;15.422;2022-10-16T14:15:00;22.20;91.20
23869;DHT22;12115;47.128;15.422;2022-10-16T14:17:28;22.20;91.00
23869;DHT22;12115;47.128;15.422;2022-10-16T14:19:59;22.20;91.40
23869;DHT22;12115;47.128;15.422;2022-10-16T14:22:40;22.20;91.30
23869;DHT22;12115;47.128;15.422;2022-10-16T14:30:36;22.20;91.80
23869;DHT22;12115;47.128;15.422;2022-10-16T14:33:06;22.10;91.70
23869;DHT22;12115;47.128;15.422;2022-10-16T14:35:36;22.00;91.90
23869;DHT22;12115;47.128;15.422;2022-10-16T14:38:05;21.90;92.50
23869;DHT22;12115;47.128;15.422;2022-10-16T14:40:35;21.90;92.20
23869;DHT22;12115;47.128;15.422;2022-10-16T14:43:03;21.90;92.00
23869;DHT22;12115;47.128;15.422;2022-10-16T14:45:33;21.90;92.00
23869;DHT22;12115;47.128;15.422;2022-10-16T14:48:06;21.90;92.40
23869;DHT22;12115;47.128;15.422;2022-10-16T14:50:45;21.90;92.50
23869;DHT22;12115;47.128;15.422;2022-10-16T14:53:12;21.90;92.20
23869;DHT22;12115;47.128;15.422;2022-10-16T14:55:41;21.80;92.70
23869;DHT22;12115;47.128;15.422;2022-10-16T14:58:16;21.80;92.70
23869;DHT22;12115;47.128;15.422;2022-10-16T15:00:44;21.80;92.50
23869;DHT22;12115;47.128;15.422;2022-10-16T15:03:11;21.80;92.50
23869;DHT22;12115;47.128;15.422;2022-10-16T15:05:38;21.80;93.00
23869;DHT22;12115;47.128;15.422;2022-10-16T15:08:05;21.70;92.70
23869;DHT22;12115;47.128;15.422;2022-10-16T15:10:38;21.70;93.00
23869;DHT22;12115;47.128;15.422;2022-10-16T15:13:06;21.60;93.10
23869;DHT22;12115;47.128;15.422;2022-10-16T15:15:38;21.60;93.60
23869;DHT22;12115;47.128;15.422;2022-10-16T15:18:07;21.50;94.70
23869;DHT22;12115;47.128;15.422;2022-10-16T15:20:36;21.50;95.00
23869;DHT22;12115;47.128;15.422;2022-10-16T15:23:15;21.50;94.40
23869;DHT22;12115;47.128;15.422;2022-10-16T15:25:49;21.30;95.10
23869;DHT22;12115;47.128;15.422;2022-10-16T15:28:17;21.30;95.50
23869;DHT22;12115;47.128;15.422;2022-10-16T15:30:45;21.20;95.80
23869;DHT22;12115;47.128;15.422;2022-10-16T15:33:15;21.20;96.40
23869;DHT22;12115;47.128;15.422;2022-10-16T15:35:42;21.10;96.70
23869;DHT22;12115;47.128;15.422;2022-10-16T15:38:13;21.00;97.30
23869;DHT22;12115;47.128;15.422;2022-10-16T15:40:41;20.90;97.60
23869;DHT22;12115;47.128;15.422;2022-10-16T15:43:08;20.80;98.00
23869;DHT22;12115;47.128;15.422;2022-10-16T15:45:35;20.70;98.50
23869;DHT22;12115;47.128;15.422;2022-10-16T15:48:02;20.60;99.10
23869;DHT22;12115;47.128;15.422;2022-10-16T15:50:30;20.40;99.90
23869;DHT22;12115;47.128;15.422;2022-10-16T15:52:58;20.10;99.90
23869;DHT22;12115;47.128;15.422;2022-10-16T15:55:25;19.90;99.90
23869;DHT22;12115;47.128;15.422;2022-10-16T15:57:52;19.90;99.90
23869;DHT22;12115;47.128;15.422;2022-10-16T16:00:20;20.00;99.90
23869;DHT22;12115;47.128;15.422;2022-10-16T16:02:53;20.00;99.90
23869;DHT22;12115;47.128;15.422;2022-10-16T16:05:21;19.90;99.90
23869;DHT22;12115;47.128;15.422;2022-10-16T16:07:49;19.90;99.90
23869;DHT22;12115;47.128;15.422;2022-10-16T16:10:17;19.70;99.90
23869;DHT22;12115;47.128;15.422;2022-10-16T16:12:49;19.70;99.90
23869;DHT22;12115;47.128;15.422;2022-10-16T16:15:22;19.60;99.90
23869;DHT22;12115;47.128;15.422;2022-10-16T16:17:49;19.50;99.90
23869;DHT22;12115;47.128;15.422;2022-10-16T16:20:16;19.20;99.90
23869;DHT22;12115;47.128;15.422;2022-10-16T16:22:43;19.00;99.90
23869;DHT22;12115;47.128;15.422;2022-10-16T16:25:10;18.80;99.90
23869;DHT22;12115;47.128;15.422;2022-10-16T16:27:37;18.80;99.90
23869;DHT22;12115;47.128;15.422;2022-10-16T16:30:10;18.80;99.90
23869;DHT22;12115;47.128;15.422;2022-10-16T16:32:45;18.70;99.90
23869;DHT22;12115;47.128;15.422;2022-10-16T16:35:12;18.70;99.90
23869;DHT22;12115;47.128;15.422;2022-10-16T16:37:39;18.50;99.90
23869;DHT22;12115;47.128;15.422;2022-10-16T16:40:06;18.40;99.90
23869;DHT22;12115;47.128;15.422;2022-10-16T16:42:33;18.30;99.90
23869;DHT22;12115;47.128;15.422;2022-10-16T16:45:00;18.20;99.90
23869;DHT22;12115;47.128;15.422;2022-10-16T16:47:27;18.20;99.90
23869;DHT22;12115;47.128;15.422;2022-10-16T16:49:55;18.10;99.90
23869;DHT22;12115;47.128;15.422;2022-10-16T16:52:23;18.00;99.90
23869;DHT22;12115;47.128;15.422;2022-10-16T16:54:50;17.80;99.90
23869;DHT22;12115;47.128;15.422;2022-10-16T16:57:21;17.70;99.90
23869;DHT22;12115;47.128;15.422;2022-10-16T16:59:50;17.60;99.90
23869;DHT22;12115;47.128;15.422;2022-10-16T17:02:19;17.60;99.90
23869;DHT22;12115;47.128;15.422;2022-10-16T17:04:47;17.60;99.90
23869;DHT22;12115;47.128;15.422;2022-10-16T17:07:14;17.60;99.90
23869;DHT22;12115;47.128;15.422;2022-10-16T17:09:45;17.60;99.90
23869;DHT22;12115;47.128;15.422;2022-10-16T17:12:13;17.40;99.90
23869;DHT22;12115;47.128;15.422;2022-10-16T17:14:41;17.20;99.90
23869;DHT22;12115;47.128;15.422;2022-10-16T17:17:09;17.00;99.90
23869;DHT22;12115;47.128;15.422;2022-10-16T17:19:38;17.00;99.90
23869;DHT22;12115;47.128;15.422;2022-10-16T17:22:07;17.10;99.90
23869;DHT22;12115;47.128;15.422;2022-10-16T17:24:34;17.20;99.90
23869;DHT22;12115;47.128;15.422;2022-10-16T17:27:03;17.10;99.90
23869;DHT22;12115;47.128;15.422;2022-10-16T17:29:31;17.00;99.90
23869;DHT22;12115;47.128;15.422;2022-10-16T17:32:00;16.80;99.90
23869;DHT22;12115;47.128;15.422;2022-10-16T17:34:28;16.70;99.90
23869;DHT22;12115;47.128;15.422;2022-10-16T17:36:58;16.50;99.90
23869;DHT22;12115;47.128;15.422;2022-10-16T17:39:28;16.50;99.90
23869;DHT22;12115;47.128;15.422;2022-10-16T17:41:58;16.60;99.90
23869;DHT22;12115;47.128;15.422;2022-10-16T17:44:27;16.40;99.90
23869;DHT22;12115;47.128;15.422;2022-10-16T17:46:56;16.40;99.90
23869;DHT22;12115;47.128;15.422;2022-10-16T17:49:24;16.40;99.90